createdAt,value
2018-03-19T00:02:07.136Z,34.35
2018-03-19T00:04:57.855Z,30.03
2018-03-19T00:07:28.690Z,30.65
2018-03-19T00:09:59.962Z,32.47
2018-03-19T00:12:31.388Z,33.07
2018-03-19T00:15:07.863Z,32.80
2018-03-19T00:17:38.354Z,30.15
2018-03-19T00:20:09.159Z,30.20
2018-03-19T00:22:39.610Z,24.45
2018-03-19T00:25:11.372Z,34.00
2018-03-19T00:27:42.266Z,31.20
2018-03-19T00:30:12.891Z,31.50
2018-03-19T00:32:43.582Z,35.45
2018-03-19T00:35:14.446Z,32.17
2018-03-19T00:37:45.504Z,32.70
2018-03-19T00:40:16.264Z,46.13
2018-03-19T00:42:47.774Z,31.15
2018-03-19T00:45:19.297Z,31.35
2018-03-19T00:47:50.301Z,37.87
2018-03-19T00:50:21.018Z,32.92
2018-03-19T00:52:55.286Z,34.45
2018-03-19T00:55:26.027Z,34.35
2018-03-19T00:57:56.673Z,31.80
2018-03-19T01:00:27.797Z,34.93
2018-03-19T01:02:58.606Z,33.35
2018-03-19T01:05:30.051Z,31.87
2018-03-19T01:08:01.959Z,33.50
2018-03-19T01:10:32.962Z,30.90
2018-03-19T01:13:03.681Z,33.03
2018-03-19T01:15:35.109Z,31.63
2018-03-19T01:18:05.806Z,35.85
2018-03-19T01:20:36.271Z,35.13
2018-03-19T01:23:06.687Z,33.30
2018-03-19T01:25:37.522Z,30.33
2018-03-19T01:28:08.562Z,34.75
2018-03-19T01:30:40.261Z,32.05
2018-03-19T01:33:11.062Z,31.62
2018-03-19T01:35:43.009Z,31.53
2018-03-19T01:38:15.132Z,32.97
2018-03-19T01:40:46.101Z,31.15
2018-03-19T01:43:17.053Z,32.25
2018-03-19T01:45:49.010Z,35.70
2018-03-19T01:48:20.087Z,34.35
2018-03-19T01:50:50.636Z,34.85
2018-03-19T01:53:21.522Z,32.10
2018-03-19T01:55:52.370Z,30.93
2018-03-19T01:58:22.907Z,30.85
2018-03-19T02:00:53.783Z,34.60
2018-03-19T02:03:24.287Z,32.45
2018-03-19T02:05:54.795Z,32.45
2018-03-19T02:08:26.062Z,34.40
2018-03-19T02:10:57.013Z,32.33
2018-03-19T02:13:27.408Z,31.05
2018-03-19T02:15:58.045Z,34.50
2018-03-19T02:18:28.455Z,34.75
2018-03-19T02:20:59.512Z,30.58
2018-03-19T02:23:30.695Z,35.17
2018-03-19T02:26:01.731Z,34.95
2018-03-19T02:28:33.654Z,33.83
2018-03-19T02:31:04.576Z,29.33
2018-03-19T02:33:36.197Z,33.15
2018-03-19T02:36:07.305Z,34.90
2018-03-19T02:38:38.121Z,34.83
2018-03-19T02:41:10.101Z,31.23
2018-03-19T02:43:41.629Z,33.20
2018-03-19T02:46:12.538Z,32.55
2018-03-19T02:48:46.603Z,35.47
2018-03-19T02:51:17.142Z,33.17
2018-03-19T02:53:48.059Z,32.80
2018-03-19T02:56:18.982Z,35.75
2018-03-19T02:58:50.671Z,33.38
2018-03-19T03:01:21.845Z,32.30
2018-03-19T03:03:52.452Z,41.35
2018-03-19T03:06:23.138Z,32.65
2018-03-19T03:08:53.787Z,34.42
2018-03-19T03:11:24.971Z,37.75
2018-03-19T03:13:56.742Z,30.90
2018-03-19T03:16:27.237Z,35.30
2018-03-19T03:18:59.285Z,32.05
2018-03-19T03:21:31.589Z,34.17
2018-03-19T03:24:03.206Z,35.73
2018-03-19T03:26:35.024Z,36.33
2018-03-19T03:29:06.606Z,35.53
2018-03-19T03:31:37.781Z,40.15
2018-03-19T03:34:08.752Z,36.17
2018-03-19T03:36:39.259Z,35.00
2018-03-19T03:39:09.830Z,29.53
2018-03-19T03:41:40.476Z,34.65
2018-03-19T03:44:11.027Z,35.03
2018-03-19T03:46:41.815Z,36.50
2018-03-19T03:49:12.909Z,39.22
2018-03-19T03:51:43.918Z,32.88
2018-03-19T03:54:14.566Z,43.30
2018-03-19T03:56:45.531Z,35.65
2018-03-19T03:59:15.970Z,36.33
2018-03-19T04:01:51.017Z,40.50
2018-03-19T04:04:21.811Z,36.75
2018-03-19T04:06:53.498Z,37.60
2018-03-19T04:09:24.844Z,47.43
2018-03-19T04:11:56.059Z,43.13
2018-03-19T04:14:28.733Z,38.93
2018-03-19T04:16:59.581Z,37.00
2018-03-19T04:19:30.611Z,43.03
2018-03-19T04:22:01.384Z,37.53
2018-03-19T04:24:32.256Z,45.38
2018-03-19T04:27:03.080Z,39.83
2018-03-19T04:29:33.906Z,38.97
2018-03-19T04:32:05.687Z,47.33
2018-03-19T04:34:37.135Z,40.42
2018-03-19T04:37:08.511Z,54.58
2018-03-19T04:39:39.443Z,42.88
2018-03-19T04:42:10.202Z,47.53
2018-03-19T04:44:40.810Z,39.25
2018-03-19T04:47:12.235Z,37.13
2018-03-19T04:49:44.222Z,45.22
2018-03-19T04:52:14.795Z,39.40
2018-03-19T04:54:45.512Z,41.72
2018-03-19T04:57:15.830Z,43.08
2018-03-19T04:59:47.462Z,40.05
2018-03-19T05:02:18.205Z,38.53
2018-03-19T05:04:52.581Z,38.67
2018-03-19T05:07:23.330Z,41.60
2018-03-19T05:09:54.144Z,41.80
2018-03-19T05:12:24.760Z,39.72
2018-03-19T05:14:55.432Z,41.40
2018-03-19T05:17:26.683Z,45.15
2018-03-19T05:19:57.258Z,49.40
2018-03-19T05:22:27.912Z,42.25
2018-03-19T05:24:58.419Z,41.72
2018-03-19T05:27:29.875Z,46.63
2018-03-19T05:30:00.464Z,44.38
2018-03-19T05:32:30.893Z,43.67
2018-03-19T05:35:01.618Z,41.17
2018-03-19T05:37:32.079Z,44.63
2018-03-19T05:40:02.591Z,45.33
2018-03-19T05:42:33.657Z,45.15
2018-03-19T05:45:04.256Z,47.08
2018-03-19T05:47:37.030Z,44.30
2018-03-19T05:50:09.909Z,45.40
2018-03-19T05:52:42.903Z,41.88
2018-03-19T05:55:19.287Z,49.87
2018-03-19T05:57:49.860Z,44.25
2018-03-19T06:00:21.297Z,44.80
2018-03-19T06:03:16.818Z,44.38
2018-03-19T06:05:49.283Z,49.90
2018-03-19T06:08:20.448Z,51.85
2018-03-19T06:10:56.971Z,40.33
2018-03-19T06:13:29.198Z,46.17
2018-03-19T06:15:59.829Z,43.97
2018-03-19T06:18:30.281Z,50.30
2018-03-19T06:21:05.352Z,38.43
2018-03-19T06:23:37.211Z,41.60
2018-03-19T06:26:36.379Z,39.00
2018-03-19T06:29:08.125Z,42.58
2018-03-19T06:32:13.110Z,42.70
2018-03-19T06:38:25.313Z,44.85
2018-03-19T06:41:00.748Z,42.63
2018-03-19T06:43:32.999Z,43.70
2018-03-19T06:46:05.734Z,50.20
2018-03-19T06:48:36.072Z,47.70
2018-03-19T06:51:13.878Z,43.00
2018-03-19T06:53:54.815Z,41.13
2018-03-19T06:56:25.459Z,46.05
2018-03-19T06:58:56.472Z,43.47
2018-03-19T07:01:28.083Z,46.65
2018-03-19T07:03:58.386Z,42.37
2018-03-19T07:06:31.461Z,43.93
2018-03-19T07:09:04.541Z,46.27
2018-03-19T07:11:37.035Z,42.90
2018-03-19T07:14:08.042Z,43.00
2018-03-19T07:16:38.309Z,43.35
2018-03-19T07:19:09.028Z,39.63
2018-03-19T07:21:41.061Z,48.40
2018-03-19T07:24:12.967Z,41.60
2018-03-19T07:26:48.983Z,44.15
2018-03-19T07:29:22.496Z,40.83
2018-03-19T07:31:53.675Z,38.75
2018-03-19T07:38:06.707Z,43.17
2018-03-19T07:40:38.397Z,46.42
2018-03-19T07:43:10.227Z,42.15
2018-03-19T07:45:45.410Z,43.58
2018-03-19T07:48:40.534Z,46.67
2018-03-19T07:51:12.929Z,39.72
2018-03-19T07:53:52.581Z,41.50
2018-03-19T07:56:24.424Z,43.55
2018-03-19T07:59:07.203Z,40.50
2018-03-19T08:01:38.501Z,46.03
2018-03-19T08:04:10.338Z,41.10
2018-03-19T08:06:43.734Z,39.47
2018-03-19T08:09:19.268Z,41.40
2018-03-19T08:11:56.242Z,39.90
2018-03-19T08:14:27.619Z,38.28
2018-03-19T08:16:59.563Z,38.40
2018-03-19T08:19:31.395Z,39.93
2018-03-19T08:22:05.179Z,46.10
2018-03-19T08:28:23.802Z,45.03
2018-03-19T08:31:21.548Z,42.42
2018-03-19T08:34:05.701Z,44.38
2018-03-19T08:36:47.376Z,41.53
2018-03-19T08:39:22.102Z,43.00
2018-03-19T08:41:52.985Z,42.25
2018-03-19T08:44:24.638Z,46.47
2018-03-19T08:47:25.176Z,44.13
2018-03-19T08:49:57.076Z,41.80
2018-03-19T08:53:01.172Z,44.75
2018-03-19T08:55:31.979Z,40.65
2018-03-19T08:58:13.448Z,43.13
2018-03-19T09:00:57.199Z,44.55
2018-03-19T09:03:43.777Z,43.53
2018-03-19T09:06:15.584Z,43.20
2018-03-19T09:08:48.436Z,43.27
2018-03-19T09:11:23.722Z,41.10
2018-03-19T09:13:55.109Z,44.35
2018-03-19T09:16:32.948Z,40.83
2018-03-19T09:19:05.002Z,41.95
2018-03-19T09:21:36.542Z,43.78
2018-03-19T09:27:02.307Z,39.80
2018-03-19T09:29:33.292Z,39.80
2018-03-19T09:32:05.994Z,34.97
2018-03-19T09:34:37.859Z,44.00
2018-03-19T09:37:10.852Z,39.80
2018-03-19T09:39:42.907Z,42.03
2018-03-19T09:49:12.335Z,38.85
2018-03-19T09:51:43.359Z,39.75
2018-03-19T09:54:13.602Z,36.67
2018-03-19T09:56:45.558Z,47.15
2018-03-19T09:59:18.162Z,42.83
2018-03-19T10:01:49.474Z,39.40
2018-03-19T10:04:22.148Z,34.70
2018-03-19T10:06:55.058Z,42.35
2018-03-19T10:09:26.238Z,41.28
2018-03-19T10:12:04.491Z,39.33
2018-03-19T10:14:36.402Z,38.37
2018-03-19T10:17:07.020Z,41.47
2018-03-19T10:19:42.041Z,36.15
2018-03-19T10:22:14.517Z,41.47
2018-03-19T10:28:16.211Z,43.25
2018-03-19T10:31:01.836Z,43.13
2018-03-19T10:33:36.660Z,35.95
2018-03-19T10:36:07.474Z,40.38
2018-03-19T10:38:43.435Z,37.30
2018-03-19T10:41:41.090Z,38.55
2018-03-19T10:44:15.391Z,39.38
2018-03-19T10:46:49.236Z,37.80
2018-03-19T10:49:22.934Z,41.22
2018-03-19T10:51:55.533Z,41.80
2018-03-19T10:54:28.867Z,36.25
2018-03-19T10:57:38.280Z,44.47
2018-03-19T11:00:28.692Z,42.03
2018-03-19T11:03:05.334Z,41.03
2018-03-19T11:05:42.218Z,38.53
2018-03-19T11:08:17.332Z,42.03
2018-03-19T11:10:47.862Z,41.50
2018-03-19T11:13:19.227Z,39.85
2018-03-19T11:15:49.597Z,37.63
2018-03-19T11:18:20.586Z,35.90
2018-03-19T11:20:52.076Z,37.67
2018-03-19T11:23:22.551Z,35.80
2018-03-19T11:25:59.921Z,45.92
2018-03-19T11:30:11.347Z,46.33
2018-03-19T11:32:51.675Z,38.97
2018-03-19T11:35:29.987Z,39.70
2018-03-19T11:38:03.611Z,36.20
2018-03-19T11:40:34.657Z,39.20
2018-03-19T11:43:06.045Z,36.63
2018-03-19T11:45:36.973Z,39.20
2018-03-19T11:48:18.556Z,39.67
2018-03-19T11:51:04.606Z,38.13
2018-03-19T11:53:43.007Z,37.35
2018-03-19T11:56:17.476Z,46.70
2018-03-19T11:58:48.382Z,46.70
2018-03-19T12:01:29.403Z,39.25
2018-03-19T12:04:00.423Z,39.03
2018-03-19T12:06:32.872Z,41.45
2018-03-19T12:09:31.157Z,43.55
2018-03-19T12:12:05.761Z,36.45
2018-03-19T12:14:36.807Z,43.77
2018-03-19T12:17:07.451Z,40.78
2018-03-19T12:19:37.826Z,36.10
2018-03-19T12:22:08.449Z,40.30
2018-03-19T12:24:41.248Z,36.13
2018-03-19T12:27:14.841Z,37.40
2018-03-19T12:30:00.552Z,38.30
2018-03-19T12:32:31.459Z,35.47
2018-03-19T12:35:01.732Z,35.25
2018-03-19T12:37:32.632Z,38.03
2018-03-19T12:40:04.130Z,42.67
2018-03-19T12:42:41.392Z,42.00
2018-03-19T12:45:14.449Z,44.17
2018-03-19T12:48:30.136Z,42.67
2018-03-19T12:51:05.223Z,38.78
2018-03-19T12:53:41.054Z,39.92
2018-03-19T12:56:11.750Z,42.83
2018-03-19T12:58:44.066Z,45.50
2018-03-19T13:01:15.673Z,46.70
2018-03-19T13:03:46.307Z,39.92
2018-03-19T13:10:15.768Z,43.67
2018-03-19T13:12:50.580Z,38.70
2018-03-19T13:15:21.403Z,40.55
2018-03-19T13:17:52.153Z,39.60
2018-03-19T13:20:22.574Z,43.20
2018-03-19T13:22:55.292Z,39.55
2018-03-19T13:25:28.759Z,37.08
2018-03-19T13:28:00.232Z,41.08
2018-03-19T13:30:31.620Z,41.13
2018-03-19T13:33:03.168Z,42.30
2018-03-19T13:35:34.478Z,42.72
2018-03-19T13:38:07.989Z,43.07
2018-03-19T13:40:41.613Z,42.37
2018-03-19T13:43:14.073Z,41.20
2018-03-19T13:45:46.085Z,40.50
2018-03-19T13:51:51.903Z,43.43
2018-03-19T13:54:27.832Z,45.10
2018-03-19T13:57:02.671Z,44.17
2018-03-19T13:59:51.132Z,38.95
2018-03-19T14:03:27.781Z,44.03
2018-03-19T14:06:03.136Z,39.20
2018-03-19T14:08:51.999Z,41.10
2018-03-19T14:11:25.237Z,38.67
2018-03-19T14:13:56.474Z,44.03
2018-03-19T14:16:47.712Z,43.40
2018-03-19T14:19:18.923Z,37.85
2018-03-19T14:22:11.563Z,48.53
2018-03-19T14:24:44.060Z,42.28
2018-03-19T14:27:17.805Z,41.20
2018-03-19T14:29:50.560Z,40.72
2018-03-19T14:32:47.989Z,38.83
2018-03-19T14:53:29.108Z,43.50
2018-03-19T14:56:41.651Z,43.67
2018-03-19T14:59:30.407Z,41.88
2018-03-19T15:02:08.400Z,39.47
2018-03-19T15:05:05.942Z,41.28
2018-03-19T15:11:19.002Z,36.05
2018-03-19T15:14:18.369Z,41.45
2018-03-19T15:21:15.526Z,38.92
2018-03-19T15:23:48.979Z,42.20
2018-03-19T15:26:56.489Z,43.08
2018-03-19T15:29:33.728Z,34.90
2018-03-19T15:32:05.762Z,36.88
2018-03-19T15:34:42.611Z,42.13
2018-03-19T15:37:15.505Z,41.50
2018-03-19T17:05:20.594Z,49.70
2018-03-19T17:07:54.970Z,42.30
2018-03-19T17:10:26.508Z,48.80
2018-03-19T17:12:59.112Z,44.95
2018-03-19T17:15:31.622Z,46.30
2018-03-19T17:18:29.039Z,45.88
2018-03-19T17:21:01.126Z,43.65
2018-03-19T17:23:33.037Z,43.38
2018-03-19T17:26:03.829Z,42.50
2018-03-19T17:28:35.021Z,45.72
2018-03-19T17:31:05.967Z,49.42
2018-03-19T17:37:06.478Z,48.13
2018-03-19T17:39:39.804Z,45.72
2018-03-19T17:42:14.110Z,47.13
2018-03-19T17:44:47.690Z,50.20
2018-03-19T17:47:19.085Z,51.08
2018-03-19T17:49:51.064Z,46.72
2018-03-19T17:52:23.124Z,44.03
2018-03-19T17:54:53.903Z,46.13
2018-03-19T17:57:41.146Z,47.60
2018-03-19T18:00:20.172Z,48.85
2018-03-19T18:02:54.224Z,44.97
2018-03-19T18:05:32.361Z,50.80
2018-03-19T18:08:23.587Z,44.95
2018-03-19T18:10:55.553Z,46.60
2018-03-19T18:13:26.024Z,51.77
2018-03-19T18:15:56.971Z,50.47
2018-03-19T18:18:29.313Z,54.53
2018-03-19T18:21:00.204Z,50.03
2018-03-19T18:23:31.291Z,52.38
2018-03-19T18:26:10.194Z,54.08
2018-03-19T18:28:42.206Z,54.33
2018-03-19T18:31:13.716Z,51.27
2018-03-19T18:33:50.823Z,49.83
2018-03-19T18:36:30.328Z,52.97
2018-03-19T18:39:01.930Z,53.83
2018-03-19T18:41:35.229Z,52.53
2018-03-19T18:44:08.467Z,51.30
2018-03-19T18:46:39.903Z,51.13
2018-03-19T18:49:12.554Z,52.88
2018-03-19T18:51:46.754Z,52.15
2018-03-19T18:54:26.956Z,53.20
2018-03-19T18:56:58.018Z,57.53
2018-03-19T18:59:31.377Z,52.90
2018-03-19T19:02:02.127Z,50.85
2018-03-19T19:04:34.341Z,53.30
2018-03-19T19:07:05.775Z,53.23
2018-03-19T19:09:36.190Z,54.35
2018-03-19T19:12:06.803Z,51.47
2018-03-19T19:14:37.556Z,52.95
2018-03-19T19:17:08.243Z,53.90
2018-03-19T19:19:38.842Z,52.80
2018-03-19T19:22:09.550Z,54.22
2018-03-19T19:24:40.259Z,46.67
2018-03-19T19:27:15.048Z,52.67
2018-03-19T19:29:46.964Z,51.50
2018-03-19T19:32:23.166Z,53.53
2018-03-19T19:34:53.979Z,55.80
2018-03-19T19:37:26.766Z,55.53
2018-03-19T19:39:58.178Z,51.97
2018-03-19T19:42:29.522Z,52.25
2018-03-19T19:45:11.796Z,49.63
2018-03-19T19:47:48.674Z,53.60
2018-03-19T19:50:20.183Z,50.90
2018-03-19T19:52:51.890Z,50.40
2018-03-19T19:55:25.164Z,51.20
2018-03-19T19:57:56.501Z,50.87
2018-03-19T20:00:27.154Z,52.05
2018-03-19T20:02:58.584Z,45.17
2018-03-19T20:05:29.824Z,50.65
2018-03-19T20:08:00.424Z,50.03
2018-03-19T20:10:30.922Z,50.00
2018-03-19T20:13:03.387Z,49.35
2018-03-19T20:15:34.572Z,49.13
2018-03-19T20:18:06.852Z,46.65
2018-03-19T20:20:38.039Z,50.65
2018-03-19T20:23:10.635Z,49.17
2018-03-19T20:25:41.180Z,48.95
2018-03-19T20:28:13.408Z,46.85
2018-03-19T20:30:45.368Z,48.40
2018-03-19T20:33:19.618Z,43.55
2018-03-19T20:35:50.660Z,46.20
2018-03-19T20:38:22.834Z,48.10
2018-03-19T20:40:53.717Z,48.85
2018-03-19T20:43:24.858Z,47.80
2018-03-19T20:45:58.476Z,47.97
2018-03-19T20:48:39.169Z,48.97
2018-03-19T20:51:09.782Z,49.25
2018-03-19T20:53:40.869Z,50.37
2018-03-19T20:56:11.426Z,50.58
2018-03-19T20:58:43.267Z,48.20
2018-03-19T21:01:13.756Z,51.97
2018-03-19T21:03:45.127Z,47.42
2018-03-19T21:06:16.435Z,50.85
2018-03-19T21:08:47.507Z,51.80
2018-03-19T21:11:18.157Z,62.30
2018-03-19T21:13:49.175Z,51.00
2018-03-19T21:16:20.559Z,54.92
2018-03-19T21:18:52.126Z,54.08
2018-03-19T21:21:23.807Z,50.10
2018-03-19T21:23:57.674Z,51.37
2018-03-19T21:26:29.288Z,49.30
2018-03-19T21:29:04.573Z,52.85
2018-03-19T21:31:45.580Z,52.78
2018-03-19T21:34:16.515Z,53.15
2018-03-19T21:36:47.182Z,54.05
2018-03-19T21:39:18.034Z,50.20
2018-03-19T21:41:49.286Z,54.65
2018-03-19T21:44:20.623Z,54.22
2018-03-19T21:46:51.312Z,51.85
2018-03-19T21:49:25.202Z,53.33
2018-03-19T21:52:00.682Z,50.12
2018-03-19T21:54:32.752Z,54.63
2018-03-19T21:57:04.516Z,55.22
2018-03-19T21:59:44.238Z,53.77
2018-03-19T22:02:16.086Z,51.55
2018-03-19T22:04:48.039Z,53.77
2018-03-19T22:07:18.724Z,52.83
2018-03-19T22:09:50.037Z,55.10
2018-03-19T22:12:30.698Z,54.65
2018-03-19T22:15:01.864Z,50.05
2018-03-19T22:17:33.387Z,49.75
2018-03-19T22:20:04.559Z,51.20
2018-03-19T22:22:37.402Z,52.40
2018-03-19T22:25:08.178Z,51.00
2018-03-19T22:27:38.779Z,49.43
2018-03-19T22:30:09.460Z,50.03
2018-03-19T22:32:39.974Z,54.08
2018-03-19T22:35:11.504Z,50.30
2018-03-19T22:37:42.759Z,53.40
2018-03-19T22:40:14.560Z,54.33
2018-03-19T22:42:50.060Z,51.90
2018-03-19T22:45:21.039Z,54.72
2018-03-19T22:47:51.292Z,56.85
2018-03-19T22:50:21.509Z,54.88
2018-03-19T22:52:51.792Z,55.95
2018-03-19T22:55:22.814Z,55.80
2018-03-19T22:57:54.001Z,51.37
2018-03-19T23:00:26.289Z,54.17
2018-03-19T23:02:57.138Z,54.78
2018-03-19T23:05:28.590Z,56.75
2018-03-19T23:07:59.411Z,52.85
2018-03-19T23:10:30.178Z,49.83
2018-03-19T23:13:01.269Z,52.25
2018-03-19T23:15:32.214Z,59.00
2018-03-19T23:18:03.488Z,52.70
2018-03-19T23:20:34.152Z,54.50
2018-03-19T23:23:04.484Z,49.63
2018-03-19T23:25:35.519Z,52.93
2018-03-19T23:28:07.548Z,48.80
2018-03-19T23:30:38.280Z,49.85
2018-03-19T23:33:08.680Z,56.42
2018-03-19T23:35:39.272Z,55.35
2018-03-19T23:38:10.066Z,52.43
2018-03-19T23:40:40.530Z,55.92
2018-03-19T23:43:11.071Z,53.05
2018-03-19T23:45:42.202Z,52.90
2018-03-19T23:48:13.515Z,58.40
2018-03-19T23:50:44.013Z,56.47
2018-03-19T23:53:14.610Z,51.00
2018-03-19T23:55:45.881Z,55.55
2018-03-19T23:58:17.224Z,55.30
